Portada
METAR-TAF:

METAR-TAF

Aeropuertos :

Aeropuerto de Palma de Mallorca

Palma de Mallorca, España

latitud: 39-33N, longitud: 002-44E, altitud: 4 m

Observación

El informe se hizo hace 13 minutos, a las 18:30 UTC
Viento 11 kt del este-noreste
Temperatura 31°C
Humedad 66%
Presión 1006 hPa
Visibilidad 10 km o más
Escasas nubes a una altura de 2200 ft

METAR: LEPA 151830Z 07011KT 9999 FEW022 31/24 Q1006 NOSIG

Hora: 20:43 (18:43 UTC)

Pronóstico

El informe se hizo hace 1 hora y 43 minutos, a las 17:00 UTC
Pronóstico válido del 15 a las 18 UTC al 16 a las 18 UTC
Viento 5 kt del este
Visibilidad 10 km o más
Escasas nubes a una altura de 2500 ft
Temporalmente
del 16 a las 00 UTC al 16 a las 06 UTC
Viento 4 kt con dirección variable
Evolucionando progresivamente
del 16 a las 07 UTC al 16 a las 09 UTC
Viento 10 kt del sur-suroeste

TAF: LEPA 151700Z 1518/1618 10005KT 9999 FEW025 TX32/1612Z TN22/1606Z TEMPO 1600/1606 VRB04KT BECMG 1607/1609 20010KT

Observaciones y pronósticos meteorológicos de más de 4000 aeropuertos (mensajes METAR y TAF).

Los puntos amarillos y rojos representan las estaciones disponibles.

Ponga el ratón en el punto deseado para ver el nombre de la estación.

Haga clic para ver las observaciones y los pronósticos meteorológicos.

Para cambiar el mapa : haga clic en los botones verdes con una cruz de color negro para hacer un zoom, en el botón verde con un guión para alejar o en las flechas verdes para mapas adyacentes.


METAR-TAF: